Time;durP1;ratioP1;P1;durP2;ratioP2;P2;SDS_P1;SDS_P2;PMS_P1;PMS_P2;Temp;Humidity;BMP_temperature;BMP_pressure;BME280_temperature;BME280_humidity;BME280_pressure;Samples;Min_cycle;Max_cycle;Signal;HPM_P1;HPM_P2
2022/10/30 00:00:55;;;;;;;;;;;;;10.10;98187.60;;;;108753;1269;41173;-55
2022/10/30 00:03:37;;;;;;;;;;;;;10.10;98190.00;;;;108873;1268;41626;-56
2022/10/30 00:06:06;;;;;;;;;;;;;10.00;98187.20;;;;109079;1260;41602;-56
2022/10/30 00:08:35;;;;;;;;;;;;;10.00;98190.40;;;;109032;1260;41177;-56
2022/10/30 00:11:06;;;;;;;;;;;;;10.00;98180.00;;;;109052;1268;42235;-55
2022/10/30 00:13:36;;;;;;;;;;;;;10.00;98186.00;;;;109037;1267;41138;-56
2022/10/30 00:16:05;;;;;;;;;;;;;9.94;98186.40;;;;109029;1269;41620;-56
2022/10/30 00:18:35;;;;;;;;;;;;;9.90;98183.40;;;;108993;1269;41691;-56
2022/10/30 00:21:09;;;;;;;;;;;;;9.80;98180.00;;;;109054;1268;41312;-55
2022/10/30 00:23:39;;;;;;;;;;;;;9.70;98164.60;;;;109094;1266;41140;-55
2022/10/30 00:26:08;;;;;;;;;;;;;9.60;98163.20;;;;108725;1270;41146;-56
2022/10/30 00:28:37;;;;;;;;;;;;;9.60;98158.80;;;;108875;1268;41243;-56
2022/10/30 00:31:06;;;;;;;;;;;;;9.52;98157.20;;;;108718;1269;41499;-55
2022/10/30 00:33:36;;;;;;;;;;;;;9.50;98160.80;;;;108721;1269;42025;-56
2022/10/30 00:36:05;;;;;;;;;;;;;9.50;98159.20;;;;108700;1271;41925;-56
2022/10/30 00:38:35;;;;;;;;;;;;;9.40;98163.00;;;;108753;1268;42411;-56
2022/10/30 00:41:05;;;;;;;;;;;;;9.40;98165.60;;;;108764;1268;41239;-56
2022/10/30 00:43:39;;;;;;;;;;;;;9.40;98160.60;;;;108949;1268;41141;-56
2022/10/30 00:46:15;;;;;;;;;;;;;9.40;98153.00;;;;108732;1270;41607;-55
2022/10/30 00:49:06;;;;;;;;;;;;;9.40;98145.40;;;;108872;1268;41145;-57
2022/10/30 00:51:36;;;;;;;;;;;;;9.40;98142.60;;;;108697;1269;41980;-56
2022/10/30 00:54:05;;;;;;;;;;;;;9.40;98141.40;;;;108901;1268;41600;-56
2022/10/30 00:56:35;;;;;;;;;;;;;9.40;98142.40;;;;109005;1268;41696;-55
2022/10/30 00:59:06;;;;;;;;;;;;;9.40;98142.40;;;;108954;1268;41163;-55
2022/10/30 01:01:36;;;;;;;;;;;;;9.40;98146.00;;;;108993;1268;41171;-55
2022/10/30 01:04:06;;;;;;;;;;;;;9.40;98140.80;;;;109017;1268;41133;-55
2022/10/30 01:06:36;;;;;;;;;;;;;9.40;98143.00;;;;109077;1268;41150;-55
2022/10/30 01:09:06;;;;;;;;;;;;;9.40;98148.20;;;;109071;1266;41620;-56
2022/10/30 01:11:36;;;;;;;;;;;;;9.30;98144.60;;;;109089;1268;41151;-55
2022/10/30 01:14:06;;;;;;;;;;;;;9.30;98134.80;;;;108909;1269;41188;-56
2022/10/30 01:16:35;;;;;;;;;;;;;9.20;98142.80;;;;108933;1269;41160;-56
2022/10/30 01:19:08;;;;;;;;;;;;;9.20;98144.40;;;;109001;1269;41219;-56
2022/10/30 01:21:55;;;;;;;;;;;;;9.10;98147.60;;;;108984;1269;41411;-56
2022/10/30 01:24:31;;;;;;;;;;;;;9.10;98147.60;;;;109048;1266;41158;-56
2022/10/30 01:27:21;;;;;;;;;;;;;9.00;98139.00;;;;108987;1266;41144;-55
2022/10/30 01:30:22;;;;;;;;;;;;;9.00;98141.40;;;;108943;1268;41804;-56
2022/10/30 01:32:52;;;;;;;;;;;;;8.90;98136.00;;;;108803;1267;41416;-55
2022/10/30 01:35:28;;;;;;;;;;;;;8.88;98130.40;;;;108898;1271;42589;-56
2022/10/30 01:38:01;;;;;;;;;;;;;8.80;98126.20;;;;108826;1270;41617;-55
2022/10/30 01:40:31;;;;;;;;;;;;;8.80;98125.20;;;;108902;1270;41181;-56
2022/10/30 01:43:00;;;;;;;;;;;;;8.80;98122.60;;;;108983;1270;41547;-56
2022/10/30 01:45:50;;;;;;;;;;;;;8.76;98122.20;;;;108949;1267;41166;-56
2022/10/30 01:48:24;;;;;;;;;;;;;8.72;98124.80;;;;108797;1271;42570;-56
2022/10/30 01:51:00;;;;;;;;;;;;;8.80;98120.80;;;;108768;1270;41239;-55
2022/10/30 01:53:35;;;;;;;;;;;;;8.80;98117.40;;;;109042;1268;41233;-56
2022/10/30 01:56:14;;;;;;;;;;;;;8.80;98114.60;;;;108883;1270;41448;-56
2022/10/30 01:58:46;;;;;;;;;;;;;8.80;98111.80;;;;108959;1270;41150;-56
2022/10/30 02:01:17;;;;;;;;;;;;;8.80;98111.00;;;;108964;1270;41149;-55
2022/10/30 02:03:48;;;;;;;;;;;;;8.90;98110.60;;;;108901;1270;41155;-56
2022/10/30 02:06:18;;;;;;;;;;;;;8.90;98105.40;;;;108687;1268;41507;-56
2022/10/30 02:08:49;;;;;;;;;;;;;9.00;98104.20;;;;108862;1267;41228;-56
2022/10/30 02:11:20;;;;;;;;;;;;;9.00;98101.20;;;;108781;1270;41261;-56
2022/10/30 02:13:52;;;;;;;;;;;;;9.00;98096.60;;;;108749;1269;41147;-56
2022/10/30 02:16:25;;;;;;;;;;;;;9.10;98092.60;;;;108778;1271;42025;-56
2022/10/30 02:18:56;;;;;;;;;;;;;9.10;98090.60;;;;108681;1269;41677;-56
2022/10/30 02:21:27;;;;;;;;;;;;;9.10;98098.40;;;;108590;1265;41698;-56
2022/10/30 02:23:59;;;;;;;;;;;;;9.10;98092.80;;;;108644;1267;41161;-56
2022/10/30 02:26:30;;;;;;;;;;;;;9.10;98086.20;;;;108547;1270;41349;-56
2022/10/30 02:29:03;;;;;;;;;;;;;9.10;98083.40;;;;108572;1270;41181;-56
2022/10/30 02:31:33;;;;;;;;;;;;;9.10;98093.20;;;;108614;1268;42414;-56
2022/10/30 02:34:03;;;;;;;;;;;;;9.00;98086.80;;;;108575;1270;41260;-56
2022/10/30 02:36:35;;;;;;;;;;;;;8.92;98087.40;;;;108822;1269;41698;-55
2022/10/30 02:39:05;;;;;;;;;;;;;8.84;98091.60;;;;108962;1262;41157;-55
2022/10/30 02:41:37;;;;;;;;;;;;;8.80;98085.20;;;;108997;1256;41161;-55
2022/10/30 02:44:08;;;;;;;;;;;;;8.80;98087.80;;;;109031;1268;41153;-56
2022/10/30 02:46:41;;;;;;;;;;;;;8.80;98096.40;;;;108995;1268;41938;-56
2022/10/30 02:49:12;;;;;;;;;;;;;8.80;98102.80;;;;108953;1268;41726;-56
2022/10/30 02:51:42;;;;;;;;;;;;;8.88;98103.20;;;;109054;1267;41430;-57
2022/10/30 02:54:15;;;;;;;;;;;;;8.90;98097.60;;;;109061;1268;41152;-56
2022/10/30 02:56:46;;;;;;;;;;;;;8.90;98094.00;;;;108749;1270;42619;-55
2022/10/30 02:59:15;;;;;;;;;;;;;8.90;98096.20;;;;108598;1271;41243;-55
2022/10/30 03:01:45;;;;;;;;;;;;;8.90;98096.00;;;;108626;1270;41142;-55
2022/10/30 03:04:16;;;;;;;;;;;;;8.86;98092.40;;;;108803;1268;41152;-56
2022/10/30 03:06:46;;;;;;;;;;;;;8.84;98097.40;;;;109053;1268;41273;-57
2022/10/30 03:09:17;;;;;;;;;;;;;8.80;98097.20;;;;109031;1267;42453;-55
2022/10/30 03:11:47;;;;;;;;;;;;;8.80;98093.60;;;;109061;1267;42016;-56
2022/10/30 03:14:17;;;;;;;;;;;;;8.80;98095.40;;;;108925;1271;41828;-56
2022/10/30 03:16:46;;;;;;;;;;;;;8.80;98097.80;;;;108865;1271;42133;-55
2022/10/30 03:19:16;;;;;;;;;;;;;8.90;98091.20;;;;108920;1270;41221;-56
2022/10/30 03:21:47;;;;;;;;;;;;;8.90;98091.80;;;;108894;1271;41913;-56
2022/10/30 03:24:17;;;;;;;;;;;;;8.94;98093.20;;;;108928;1266;41627;-55
2022/10/30 03:26:47;;;;;;;;;;;;;9.00;98094.20;;;;108763;1268;41173;-55
2022/10/30 03:29:16;;;;;;;;;;;;;9.00;98096.40;;;;109029;1271;41319;-55
2022/10/30 03:31:46;;;;;;;;;;;;;9.00;98092.40;;;;108961;1268;41138;-56
2022/10/30 03:34:20;;;;;;;;;;;;;9.06;98083.60;;;;109063;1268;41159;-58
2022/10/30 03:36:49;;;;;;;;;;;;;9.08;98090.60;;;;108873;1268;42441;-57
2022/10/30 03:39:18;;;;;;;;;;;;;9.04;98092.80;;;;109041;1266;41249;-55
2022/10/30 03:41:48;;;;;;;;;;;;;9.02;98094.60;;;;109007;1263;41147;-55
2022/10/30 03:44:18;;;;;;;;;;;;;9.00;98096.20;;;;108569;1271;41160;-55
2022/10/30 03:46:49;;;;;;;;;;;;;9.00;98095.00;;;;108797;1271;41225;-55
2022/10/30 03:49:27;;;;;;;;;;;;;9.06;98095.20;;;;108979;1271;41411;-56
2022/10/30 03:51:56;;;;;;;;;;;;;9.06;98091.40;;;;108951;1269;41191;-55
2022/10/30 03:54:27;;;;;;;;;;;;;9.04;98088.40;;;;108882;1271;41427;-55
2022/10/30 03:56:58;;;;;;;;;;;;;9.04;98087.00;;;;108897;1271;41292;-56
2022/10/30 03:59:29;;;;;;;;;;;;;9.04;98083.00;;;;108929;1271;41147;-56
2022/10/30 04:02:17;;;;;;;;;;;;;9.10;98082.60;;;;108914;1270;41158;-56
2022/10/30 04:04:47;;;;;;;;;;;;;9.10;98083.00;;;;108905;1270;41128;-55
2022/10/30 04:07:16;;;;;;;;;;;;;9.10;98080.60;;;;108909;1271;41225;-55
2022/10/30 04:09:46;;;;;;;;;;;;;9.10;98077.60;;;;108932;1270;41605;-55
2022/10/30 04:12:15;;;;;;;;;;;;;9.10;98074.60;;;;108919;1269;41383;-56
2022/10/30 04:14:44;;;;;;;;;;;;;9.10;98072.40;;;;108961;1266;41562;-56
2022/10/30 04:17:12;;;;;;;;;;;;;9.10;98074.00;;;;109036;1268;41149;-56
2022/10/30 04:19:42;;;;;;;;;;;;;9.10;98071.40;;;;108961;1270;41170;-56
2022/10/30 04:22:10;;;;;;;;;;;;;9.10;98075.00;;;;109013;1266;41142;-56
2022/10/30 04:24:39;;;;;;;;;;;;;9.10;98071.60;;;;108955;1270;41134;-55
2022/10/30 04:27:09;;;;;;;;;;;;;9.10;98068.40;;;;109085;1268;41181;-55
2022/10/30 04:29:38;;;;;;;;;;;;;9.10;98071.20;;;;109043;1268;41604;-55
2022/10/30 04:32:07;;;;;;;;;;;;;9.10;98060.80;;;;108929;1269;41228;-56
2022/10/30 04:34:38;;;;;;;;;;;;;9.10;98059.00;;;;108891;1268;41227;-55
2022/10/30 04:37:07;;;;;;;;;;;;;9.00;98061.40;;;;109040;1268;41852;-55
2022/10/30 04:39:37;;;;;;;;;;;;;9.00;98059.40;;;;108972;1268;42434;-55
2022/10/30 04:42:13;;;;;;;;;;;;;8.90;98058.20;;;;108946;1268;41651;-55
2022/10/30 04:44:43;;;;;;;;;;;;;8.90;98056.00;;;;108775;1268;41603;-55
2022/10/30 04:47:14;;;;;;;;;;;;;8.90;98056.40;;;;108820;1271;41174;-56
2022/10/30 04:49:44;;;;;;;;;;;;;8.90;98053.00;;;;108978;1271;41149;-56
2022/10/30 04:52:13;;;;;;;;;;;;;8.96;98054.00;;;;108840;1268;41307;-56
2022/10/30 04:54:43;;;;;;;;;;;;;9.00;98056.80;;;;108951;1269;41891;-56
2022/10/30 04:57:12;;;;;;;;;;;;;9.00;98058.40;;;;108932;1268;41246;-56
2022/10/30 04:59:42;;;;;;;;;;;;;9.00;98063.20;;;;108912;1271;41470;-56
2022/10/30 05:02:10;;;;;;;;;;;;;9.10;98062.80;;;;108846;1271;41156;-56
2022/10/30 05:04:39;;;;;;;;;;;;;9.10;98060.80;;;;108982;1266;41163;-56
2022/10/30 05:07:08;;;;;;;;;;;;;9.10;98059.00;;;;109018;1270;41139;-56
2022/10/30 05:09:37;;;;;;;;;;;;;9.10;98060.00;;;;109008;1268;41700;-57
2022/10/30 05:12:05;;;;;;;;;;;;;9.10;98061.60;;;;109153;1271;41205;-56
2022/10/30 05:14:40;;;;;;;;;;;;;9.10;98063.80;;;;109010;1268;41163;-56
2022/10/30 05:17:09;;;;;;;;;;;;;9.10;98063.40;;;;108978;1268;41462;-55
2022/10/30 05:19:38;;;;;;;;;;;;;9.10;98060.20;;;;108901;1268;41656;-56
2022/10/30 05:22:08;;;;;;;;;;;;;9.12;98059.00;;;;108923;1268;41162;-56
2022/10/30 05:24:37;;;;;;;;;;;;;9.20;98066.00;;;;108748;1270;41153;-54
2022/10/30 05:27:05;;;;;;;;;;;;;9.20;98070.60;;;;108616;1271;41155;-55
2022/10/30 05:29:34;;;;;;;;;;;;;9.20;98067.40;;;;108767;1271;41611;-57
2022/10/30 05:32:03;;;;;;;;;;;;;9.20;98070.40;;;;108970;1268;41963;-56
2022/10/30 05:34:43;;;;;;;;;;;;;9.30;98079.40;;;;108973;1262;41201;-55
2022/10/30 05:37:12;;;;;;;;;;;;;9.30;98089.80;;;;109054;1267;41239;-55
2022/10/30 05:39:42;;;;;;;;;;;;;9.30;98100.00;;;;109016;1268;41149;-55
2022/10/30 05:42:19;;;;;;;;;;;;;9.38;98105.60;;;;108990;1268;42338;-56
2022/10/30 05:44:48;;;;;;;;;;;;;9.34;98106.20;;;;108966;1269;41236;-55
2022/10/30 05:47:34;;;;;;;;;;;;;9.40;98104.60;;;;108909;1268;41240;-55
2022/10/30 05:50:04;;;;;;;;;;;;;9.40;98102.60;;;;109070;1268;41138;-56
2022/10/30 05:52:32;;;;;;;;;;;;;9.40;98101.40;;;;108961;1268;41172;-56
2022/10/30 05:55:02;;;;;;;;;;;;;9.50;98098.80;;;;109027;1268;41146;-55
2022/10/30 05:57:41;;;;;;;;;;;;;9.50;98097.60;;;;109036;1268;41194;-55
2022/10/30 06:00:11;;;;;;;;;;;;;9.50;98098.00;;;;109034;1268;41464;-56
2022/10/30 06:02:45;;;;;;;;;;;;;9.58;98100.00;;;;109009;1260;41260;-56
2022/10/30 06:05:16;;;;;;;;;;;;;9.60;98097.80;;;;108891;1269;41167;-55
2022/10/30 06:07:46;;;;;;;;;;;;;9.60;98097.20;;;;108711;1271;41251;-58
2022/10/30 06:10:15;;;;;;;;;;;;;9.60;98103.80;;;;109045;1268;41495;-55
2022/10/30 06:13:05;;;;;;;;;;;;;9.66;98096.60;;;;108907;1266;41165;-55
2022/10/30 06:15:41;;;;;;;;;;;;;9.70;98102.00;;;;108851;1271;41223;-57
2022/10/30 06:18:10;;;;;;;;;;;;;9.70;98102.00;;;;108867;1271;41133;-56
2022/10/30 06:20:44;;;;;;;;;;;;;9.80;98101.20;;;;108892;1268;41405;-55
2022/10/30 06:23:38;;;;;;;;;;;;;9.80;98102.00;;;;108774;1268;41177;-56
2022/10/30 06:26:18;;;;;;;;;;;;;9.90;98109.60;;;;108817;1268;42409;-55
2022/10/30 06:28:51;;;;;;;;;;;;;9.90;98105.60;;;;108867;1270;41250;-61
2022/10/30 06:31:22;;;;;;;;;;;;;10.00;98102.80;;;;109075;1269;41184;-56
2022/10/30 06:33:51;;;;;;;;;;;;;10.02;98097.60;;;;108964;1260;41406;-57
2022/10/30 06:36:19;;;;;;;;;;;;;10.10;98101.60;;;;108848;1271;41788;-58
2022/10/30 06:38:48;;;;;;;;;;;;;10.10;98093.40;;;;108940;1271;41148;-57
2022/10/30 06:41:19;;;;;;;;;;;;;10.18;98094.60;;;;108923;1271;41662;-56
2022/10/30 06:44:13;;;;;;;;;;;;;10.20;98094.00;;;;108950;1270;41615;-57
2022/10/30 06:46:41;;;;;;;;;;;;;10.30;98099.40;;;;108857;1270;41145;-57
2022/10/30 06:49:12;;;;;;;;;;;;;10.38;98096.60;;;;108885;1270;41148;-57
2022/10/30 06:51:41;;;;;;;;;;;;;10.40;98096.80;;;;108946;1270;41166;-57
2022/10/30 06:54:09;;;;;;;;;;;;;10.50;98096.60;;;;108899;1270;42055;-56
2022/10/30 06:56:40;;;;;;;;;;;;;10.60;98094.80;;;;108932;1270;41220;-57
2022/10/30 06:59:38;;;;;;;;;;;;;10.62;98092.40;;;;108935;1270;41464;-57
2022/10/30 07:02:39;;;;;;;;;;;;;10.70;98087.60;;;;108735;1270;41185;-57
2022/10/30 07:05:10;;;;;;;;;;;;;10.80;98089.00;;;;108907;1271;41366;-56
2022/10/30 07:07:38;;;;;;;;;;;;;10.90;98087.60;;;;108883;1266;41924;-57
2022/10/30 07:10:08;;;;;;;;;;;;;10.96;98086.00;;;;108921;1271;41964;-57
2022/10/30 07:12:57;;;;;;;;;;;;;11.00;98082.00;;;;108932;1271;41175;-57
2022/10/30 07:15:42;;;;;;;;;;;;;11.10;98078.20;;;;109088;1256;41891;-56
2022/10/30 07:18:19;;;;;;;;;;;;;11.08;98074.60;;;;109029;1268;41796;-57
2022/10/30 07:20:58;;;;;;;;;;;;;11.10;98067.20;;;;109048;1268;41147;-57
2022/10/30 07:23:27;;;;;;;;;;;;;11.10;98069.00;;;;109105;1268;41136;-57
2022/10/30 07:26:06;;;;;;;;;;;;;11.20;98068.80;;;;108927;1271;41928;-57
2022/10/30 07:28:44;;;;;;;;;;;;;11.30;98064.80;;;;108772;1271;220537;-57
2022/10/30 07:31:20;;;;;;;;;;;;;11.40;98063.00;;;;109056;1268;41630;-57
2022/10/30 07:34:34;;;;;;;;;;;;;11.56;98067.60;;;;108841;1270;41139;-57
2022/10/30 07:37:22;;;;;;;;;;;;;11.70;98061.60;;;;109019;1269;42242;-56
2022/10/30 07:40:06;;;;;;;;;;;;;11.90;98059.00;;;;108909;1270;41391;-57
2022/10/30 07:43:00;;;;;;;;;;;;;12.10;98052.40;;;;108965;1268;41007;-57
2022/10/30 07:45:48;;;;;;;;;;;;;12.20;98057.80;;;;109097;1268;41619;-59
2022/10/30 07:48:40;;;;;;;;;;;;;12.32;98056.80;;;;108859;1268;41686;-58
2022/10/30 07:51:21;;;;;;;;;;;;;12.50;98047.40;;;;108939;1271;41377;-57
2022/10/30 07:53:52;;;;;;;;;;;;;12.60;98051.60;;;;109024;1270;41143;-57
2022/10/30 07:56:23;;;;;;;;;;;;;12.80;98049.20;;;;108842;1264;41879;-57
2022/10/30 07:58:57;;;;;;;;;;;;;12.90;98048.20;;;;108990;1271;41745;-57
2022/10/30 08:01:54;;;;;;;;;;;;;13.18;98051.60;;;;108917;1270;41245;-57
2022/10/30 08:04:31;;;;;;;;;;;;;13.38;98050.40;;;;109104;1271;41894;-57
2022/10/30 08:07:08;;;;;;;;;;;;;13.62;98049.20;;;;108955;1271;41145;-57
2022/10/30 08:09:36;;;;;;;;;;;;;13.88;98044.60;;;;108856;1271;41236;-56
2022/10/30 08:12:05;;;;;;;;;;;;;14.00;98031.60;;;;108931;1270;41137;-57
2022/10/30 08:14:34;;;;;;;;;;;;;14.18;98025.80;;;;108884;1271;41289;-58
2022/10/30 08:17:03;;;;;;;;;;;;;14.26;98017.60;;;;108976;1271;42559;-56
2022/10/30 08:19:32;;;;;;;;;;;;;14.50;98022.20;;;;108972;1271;42497;-57
2022/10/30 08:22:01;;;;;;;;;;;;;14.60;98012.20;;;;108823;1271;41152;-57
2022/10/30 08:24:31;;;;;;;;;;;;;14.68;98009.00;;;;109024;1271;41615;-57
2022/10/30 08:27:00;;;;;;;;;;;;;14.70;98000.60;;;;109050;1271;41444;-58
2022/10/30 08:29:29;;;;;;;;;;;;;14.70;97997.80;;;;109003;1271;41498;-58
2022/10/30 08:31:58;;;;;;;;;;;;;14.64;98003.60;;;;109005;1270;41473;-57
2022/10/30 08:34:46;;;;;;;;;;;;;14.70;98012.40;;;;108935;1271;41162;-57
2022/10/30 08:37:17;;;;;;;;;;;;;14.82;98026.40;;;;108945;1272;41168;-57
2022/10/30 08:39:45;;;;;;;;;;;;;15.00;98035.00;;;;108827;1271;41230;-57
2022/10/30 08:42:53;;;;;;;;;;;;;15.24;98043.80;;;;108575;1273;41322;-57
2022/10/30 08:45:22;;;;;;;;;;;;;15.40;98042.20;;;;108761;1271;41178;-56
2022/10/30 08:48:09;;;;;;;;;;;;;15.50;98043.00;;;;108908;1271;41139;-56
2022/10/30 08:50:39;;;;;;;;;;;;;15.60;98036.80;;;;108957;1271;41160;-56
2022/10/30 08:53:11;;;;;;;;;;;;;15.72;98032.40;;;;108957;1269;41147;-56
2022/10/30 08:55:40;;;;;;;;;;;;;15.90;98035.60;;;;108983;1271;41226;-55
2022/10/30 08:58:31;;;;;;;;;;;;;16.10;98043.20;;;;108938;1267;41122;-55
2022/10/30 09:01:00;;;;;;;;;;;;;16.30;98041.80;;;;108853;1271;41623;-57
2022/10/30 09:03:47;;;;;;;;;;;;;16.60;98045.20;;;;108983;1271;41145;-57
2022/10/30 09:06:35;;;;;;;;;;;;;17.00;98051.20;;;;108797;1271;41151;-57
2022/10/30 09:09:30;;;;;;;;;;;;;17.38;98049.60;;;;108882;1271;42602;-57
2022/10/30 09:12:02;;;;;;;;;;;;;17.70;98044.80;;;;108930;1270;41898;-57
2022/10/30 09:14:35;;;;;;;;;;;;;18.00;98040.60;;;;108794;1271;41292;-57
2022/10/30 09:17:03;;;;;;;;;;;;;18.30;98045.60;;;;108762;1271;41597;-57
2022/10/30 09:19:32;;;;;;;;;;;;;18.40;98047.40;;;;108955;1271;41699;-57
2022/10/30 09:22:01;;;;;;;;;;;;;18.40;98047.40;;;;109006;1266;42130;-57
2022/10/30 09:24:30;;;;;;;;;;;;;18.50;98035.40;;;;109028;1270;41440;-56
2022/10/30 09:26:59;;;;;;;;;;;;;18.50;98036.20;;;;108939;1271;41201;-55
2022/10/30 09:29:30;;;;;;;;;;;;;18.40;98030.60;;;;108816;1256;41154;-57
2022/10/30 09:32:08;;;;;;;;;;;;;18.44;98029.20;;;;108977;1270;41626;-58
2022/10/30 09:34:51;;;;;;;;;;;;;18.60;98018.20;;;;108998;1268;41138;-57
2022/10/30 09:37:28;;;;;;;;;;;;;18.94;98006.80;;;;109025;1271;41146;-56
2022/10/30 09:39:59;;;;;;;;;;;;;19.22;98006.00;;;;108946;1270;40954;-57
2022/10/30 09:42:37;;;;;;;;;;;;;19.54;98004.20;;;;109000;1268;41153;-56
2022/10/30 09:45:27;;;;;;;;;;;;;19.60;98011.00;;;;108973;1268;41166;-57
2022/10/30 09:48:10;;;;;;;;;;;;;19.10;98007.60;;;;109034;1268;41207;-57
2022/10/30 09:50:58;;;;;;;;;;;;;19.10;98012.20;;;;108954;1271;41141;-57
2022/10/30 09:53:37;;;;;;;;;;;;;19.00;98015.00;;;;108992;1267;41167;-57
2022/10/30 09:56:13;;;;;;;;;;;;;19.10;98009.20;;;;108984;1268;41272;-56
2022/10/30 09:58:44;;;;;;;;;;;;;19.30;98009.20;;;;108864;1271;41131;-57
2022/10/30 10:01:24;;;;;;;;;;;;;19.70;98018.60;;;;108965;1268;41162;-58
2022/10/30 10:04:17;;;;;;;;;;;;;20.20;98016.80;;;;108927;1270;41681;-56
2022/10/30 10:07:31;;;;;;;;;;;;;21.34;98007.40;;;;109001;1268;41151;-57
2022/10/30 10:10:40;;;;;;;;;;;;;22.46;97993.60;;;;108886;1268;41258;-57
2022/10/30 10:13:26;;;;;;;;;;;;;23.46;97995.60;;;;108998;1268;41935;-57
2022/10/30 10:16:14;;;;;;;;;;;;;24.28;97993.20;;;;108979;1268;41281;-57
2022/10/30 10:18:47;;;;;;;;;;;;;24.68;97985.20;;;;108914;1267;41610;-57
2022/10/30 10:21:26;;;;;;;;;;;;;25.38;97983.80;;;;109018;1268;41922;-60
2022/10/30 10:23:56;;;;;;;;;;;;;25.98;97978.40;;;;108957;1268;41238;-57
2022/10/30 10:26:43;;;;;;;;;;;;;26.36;97975.20;;;;108955;1270;42109;-57
2022/10/30 10:29:11;;;;;;;;;;;;;26.50;97969.20;;;;108934;1268;41606;-58
2022/10/30 10:31:39;;;;;;;;;;;;;26.86;97959.20;;;;108992;1268;42429;-58
2022/10/30 10:34:20;;;;;;;;;;;;;26.80;97961.00;;;;109071;1268;41174;-57
2022/10/30 10:37:01;;;;;;;;;;;;;26.70;97961.40;;;;109024;1265;41152;-57
2022/10/30 10:39:50;;;;;;;;;;;;;26.78;97961.60;;;;109017;1268;41761;-57
2022/10/30 10:42:37;;;;;;;;;;;;;27.16;97960.20;;;;108979;1268;42291;-57
2022/10/30 10:45:17;;;;;;;;;;;;;27.16;97956.00;;;;109051;1268;41229;-57
2022/10/30 10:48:03;;;;;;;;;;;;;27.18;97954.20;;;;109054;1268;41255;-57
2022/10/30 10:50:33;;;;;;;;;;;;;27.44;97956.00;;;;109052;1265;41715;-57
2022/10/30 10:53:06;;;;;;;;;;;;;28.00;97956.00;;;;109053;1268;41924;-58
2022/10/30 10:55:36;;;;;;;;;;;;;28.30;97954.60;;;;109060;1270;41170;-58
2022/10/30 10:58:13;;;;;;;;;;;;;28.30;97943.80;;;;109036;1265;41165;-57
2022/10/30 11:00:41;;;;;;;;;;;;;27.72;97936.60;;;;109022;1271;41248;-57
2022/10/30 11:03:31;;;;;;;;;;;;;27.60;97942.20;;;;108950;1272;41258;-57
2022/10/30 11:06:22;;;;;;;;;;;;;27.32;97939.80;;;;109051;1271;41183;-58
2022/10/30 11:08:51;;;;;;;;;;;;;27.86;97931.40;;;;109021;1270;42178;-57
2022/10/30 11:11:20;;;;;;;;;;;;;28.32;97934.00;;;;108886;1272;41147;-57
2022/10/30 11:13:48;;;;;;;;;;;;;28.70;97933.40;;;;109017;1270;41147;-57
2022/10/30 11:16:33;;;;;;;;;;;;;28.66;97926.40;;;;109016;1270;41141;-57
2022/10/30 11:19:02;;;;;;;;;;;;;29.10;97924.40;;;;109054;1268;41291;-59
2022/10/30 11:21:32;;;;;;;;;;;;;29.72;97916.80;;;;109066;1272;41128;-58
2022/10/30 11:24:01;;;;;;;;;;;;;30.58;97915.40;;;;108995;1272;41915;-57
2022/10/30 11:26:31;;;;;;;;;;;;;31.02;97916.60;;;;109060;1271;41162;-58
2022/10/30 11:29:10;;;;;;;;;;;;;31.30;97914.40;;;;108996;1272;41260;-58
2022/10/30 11:31:40;;;;;;;;;;;;;31.30;97920.20;;;;108997;1267;41273;-58
2022/10/30 11:34:14;;;;;;;;;;;;;31.00;97921.00;;;;109085;1268;41192;-58
2022/10/30 11:36:43;;;;;;;;;;;;;30.30;97920.40;;;;109058;1268;41166;-58
2022/10/30 11:39:16;;;;;;;;;;;;;29.70;97921.80;;;;108976;1272;41965;-57
2022/10/30 11:41:55;;;;;;;;;;;;;29.10;97917.80;;;;109001;1270;41137;-58
2022/10/30 11:44:24;;;;;;;;;;;;;28.92;97921.00;;;;108923;1272;41177;-58
2022/10/30 11:46:52;;;;;;;;;;;;;29.04;97912.40;;;;109048;1272;41827;-58
2022/10/30 11:49:44;;;;;;;;;;;;;29.20;97913.20;;;;108930;1270;42173;-57
2022/10/30 11:52:13;;;;;;;;;;;;;29.10;97910.80;;;;109004;1270;40844;-58
2022/10/30 11:54:43;;;;;;;;;;;;;29.12;97900.40;;;;108994;1272;41138;-57
2022/10/30 11:57:21;;;;;;;;;;;;;29.72;97897.60;;;;109041;1268;41506;-57
2022/10/30 11:59:51;;;;;;;;;;;;;30.22;97897.00;;;;109061;1270;41140;-58
2022/10/30 12:02:20;;;;;;;;;;;;;30.40;97898.60;;;;109055;1268;41933;-57
2022/10/30 12:04:50;;;;;;;;;;;;;30.50;97901.80;;;;109002;1271;41153;-58
2022/10/30 12:07:22;;;;;;;;;;;;;30.50;97895.40;;;;109046;1268;41682;-58
2022/10/30 12:09:50;;;;;;;;;;;;;30.70;97887.20;;;;109072;1270;41247;-59
2022/10/30 12:12:19;;;;;;;;;;;;;31.14;97885.40;;;;109026;1271;41577;-58
2022/10/30 12:14:48;;;;;;;;;;;;;31.58;97882.40;;;;109046;1272;41886;-58
2022/10/30 12:17:16;;;;;;;;;;;;;31.70;97887.60;;;;109059;1272;41309;-58
2022/10/30 12:19:46;;;;;;;;;;;;;31.30;97893.60;;;;109080;1272;41139;-57
2022/10/30 12:22:41;;;;;;;;;;;;;30.56;97888.00;;;;109066;1271;41291;-57
2022/10/30 12:25:24;;;;;;;;;;;;;29.76;97885.40;;;;109004;1272;42124;-57
2022/10/30 12:28:31;;;;;;;;;;;;;29.00;97883.20;;;;109054;1273;41598;-58
2022/10/30 12:31:01;;;;;;;;;;;;;28.10;97884.40;;;;108557;1277;42029;-57
2022/10/30 12:33:32;;;;;;;;;;;;;27.46;97881.80;;;;108461;1280;41230;-57
2022/10/30 12:36:02;;;;;;;;;;;;;27.18;97880.60;;;;108787;1272;41602;-58
2022/10/30 12:38:34;;;;;;;;;;;;;27.00;97885.80;;;;109031;1271;41137;-57
2022/10/30 12:41:03;;;;;;;;;;;;;26.90;97888.00;;;;109079;1271;41145;-57
2022/10/30 12:43:32;;;;;;;;;;;;;26.70;97886.60;;;;109052;1272;41147;-57
2022/10/30 12:46:16;;;;;;;;;;;;;26.56;97889.00;;;;109023;1272;41415;-57
2022/10/30 12:48:49;;;;;;;;;;;;;26.10;97889.00;;;;108888;1273;42412;-58
2022/10/30 12:51:36;;;;;;;;;;;;;25.60;97894.00;;;;109045;1273;41251;-58
2022/10/30 12:54:37;;;;;;;;;;;;;25.10;97893.80;;;;108965;1273;41500;-57
2022/10/30 12:57:13;;;;;;;;;;;;;24.32;97908.00;;;;108603;1274;41225;-57
2022/10/30 12:59:50;;;;;;;;;;;;;23.20;97910.00;;;;108945;1274;41141;-57
2022/10/30 13:02:22;;;;;;;;;;;;;22.90;97915.80;;;;108972;1269;41370;-57
2022/10/30 13:04:51;;;;;;;;;;;;;22.70;97915.60;;;;108967;1273;41958;-57
2022/10/30 13:07:28;;;;;;;;;;;;;22.70;97915.60;;;;108932;1269;41568;-56
2022/10/30 13:10:08;;;;;;;;;;;;;22.24;97911.40;;;;109012;1273;41345;-57
2022/10/30 13:12:38;;;;;;;;;;;;;21.52;97906.40;;;;109035;1271;41350;-62
2022/10/30 13:15:12;;;;;;;;;;;;;21.50;97908.20;;;;109076;1273;41616;-57
2022/10/30 13:17:40;;;;;;;;;;;;;21.70;97914.20;;;;108944;1273;41597;-57
2022/10/30 13:20:13;;;;;;;;;;;;;22.10;97904.20;;;;109023;1273;41137;-57
2022/10/30 13:22:44;;;;;;;;;;;;;22.46;97896.40;;;;109047;1267;41203;-57
2022/10/30 13:25:15;;;;;;;;;;;;;22.70;97902.40;;;;109051;1269;41145;-57
2022/10/30 13:27:52;;;;;;;;;;;;;22.80;97898.60;;;;109072;1272;41222;-57
2022/10/30 13:30:21;;;;;;;;;;;;;23.10;97902.40;;;;108985;1273;41154;-57
2022/10/30 13:33:04;;;;;;;;;;;;;23.20;97896.20;;;;108953;1261;41143;-57
2022/10/30 13:35:36;;;;;;;;;;;;;23.10;97901.40;;;;108943;1272;41433;-57
2022/10/30 13:38:42;;;;;;;;;;;;;23.10;97901.00;;;;108970;1272;41920;-57
2022/10/30 13:41:14;;;;;;;;;;;;;23.10;97900.40;;;;108370;1279;41625;-57
2022/10/30 13:43:45;;;;;;;;;;;;;22.98;97900.40;;;;108445;1278;41403;-57
2022/10/30 13:46:13;;;;;;;;;;;;;22.80;97903.20;;;;108621;1274;41490;-57
2022/10/30 13:48:59;;;;;;;;;;;;;22.50;97897.80;;;;109021;1272;41141;-57
2022/10/30 13:51:39;;;;;;;;;;;;;22.36;97890.20;;;;109069;1273;41974;-58
2022/10/30 13:54:09;;;;;;;;;;;;;22.20;97896.20;;;;109065;1272;42217;-57
2022/10/30 13:56:38;;;;;;;;;;;;;22.10;97901.80;;;;109069;1267;41636;-57
2022/10/30 13:59:06;;;;;;;;;;;;;21.84;97902.80;;;;109022;1268;41305;-57
2022/10/30 14:01:42;;;;;;;;;;;;;21.70;97905.60;;;;109073;1268;42313;-56
2022/10/30 14:04:15;;;;;;;;;;;;;21.60;97909.00;;;;109065;1266;42419;-57
2022/10/30 14:06:52;;;;;;;;;;;;;21.50;97918.00;;;;109003;1268;41155;-57
2022/10/30 14:09:25;;;;;;;;;;;;;21.30;97920.20;;;;108861;1269;41199;-57
2022/10/30 14:11:56;;;;;;;;;;;;;21.16;97916.80;;;;108946;1269;41468;-57
2022/10/30 14:14:28;;;;;;;;;;;;;20.90;97908.40;;;;109002;1269;41840;-58